Time;durP1;ratioP1;P1;durP2;ratioP2;P2;SDS_P1;SDS_P2;PMS_P1;PMS_P2;Temp;Humidity;BMP_temperature;BMP_pressure;BME280_temperature;BME280_humidity;BME280_pressure;Samples;Min_cycle;Max_cycle;Signal;HPM_P1;HPM_P2
2022/10/20 00:01:00;;;;;;;19.60;5.97;;;;;;;;;;5092604;28;20023;-68
2022/10/20 00:03:26;;;;;;;16.73;5.40;;;;;;;;;;5092848;28;20032;-68
2022/10/20 00:05:53;;;;;;;22.30;6.47;;;;;;;;;;5092344;28;20024;-69
2022/10/20 00:08:19;;;;;;;17.13;5.68;;;;;;;;;;5091252;28;20050;-69
2022/10/20 00:10:55;;;;;;;17.13;5.53;;;;;;;;;;5092544;28;20050;-69
2022/10/20 00:13:22;;;;;;;15.88;5.63;;;;;;;;;;5092273;28;20043;-69
2022/10/20 00:15:52;;;;;;;14.32;4.85;;;;;;;;;;5091527;28;20032;-69
2022/10/20 00:18:18;;;;;;;13.05;4.43;;;;;;;;;;5092389;28;20028;-70
2022/10/20 00:20:45;;;;;;;14.15;5.07;;;;;;;;;;5091820;28;20054;-69
2022/10/20 00:23:11;;;;;;;15.85;5.20;;;;;;;;;;5092254;28;20020;-70
2022/10/20 00:25:38;;;;;;;17.67;5.28;;;;;;;;;;5092245;28;20019;-70
2022/10/20 00:28:04;;;;;;;20.30;5.20;;;;;;;;;;5090764;28;20031;-70
2022/10/20 00:30:30;;;;;;;13.82;4.72;;;;;;;;;;5092230;28;20030;-69
2022/10/20 00:32:57;;;;;;;14.40;4.60;;;;;;;;;;5090667;28;20016;-69
2022/10/20 00:35:23;;;;;;;11.73;4.63;;;;;;;;;;5091674;28;20036;-69
2022/10/20 00:37:49;;;;;;;12.57;4.75;;;;;;;;;;5091889;28;20565;-70
2022/10/20 00:40:16;;;;;;;16.13;4.88;;;;;;;;;;5092360;28;20024;-69
2022/10/20 00:42:44;;;;;;;14.07;4.88;;;;;;;;;;5090814;28;20073;-70
2022/10/20 00:45:15;;;;;;;10.70;4.72;;;;;;;;;;5091723;28;20022;-69
2022/10/20 00:47:41;;;;;;;;;;;;;;;;;;5092224;28;20497;-70
2022/10/20 00:50:07;;;;;;;13.18;4.40;;;;;;;;;;5091583;28;19973;-70
2022/10/20 00:52:34;;;;;;;15.65;4.72;;;;;;;;;;5091823;28;20024;-69
2022/10/20 00:55:01;;;;;;;13.48;4.75;;;;;;;;;;5091849;28;20031;-69
2022/10/20 00:57:29;;;;;;;12.30;5.15;;;;;;;;;;5091670;28;20028;-70
2022/10/20 00:59:55;;;;;;;13.20;5.00;;;;;;;;;;5091621;28;20496;-69
2022/10/20 01:02:21;;;;;;;12.63;4.88;;;;;;;;;;5091376;28;20149;-69
2022/10/20 01:04:48;;;;;;;15.13;4.97;;;;;;;;;;5091377;28;20034;-69
2022/10/20 01:07:14;;;;;;;14.93;4.40;;;;;;;;;;5090216;28;20024;-69
2022/10/20 01:09:41;;;;;;;14.63;4.65;;;;;;;;;;5091561;28;20040;-69
2022/10/20 01:12:22;;;;;;;16.52;5.60;;;;;;;;;;5091390;28;20553;-69
2022/10/20 01:14:49;;;;;;;13.68;4.97;;;;;;;;;;5090061;28;20453;-70
2022/10/20 01:17:15;;;;;;;17.83;5.35;;;;;;;;;;5091707;28;20044;-70
2022/10/20 01:19:59;;;;;;;14.38;4.50;;;;;;;;;;5090854;28;20020;-69
2022/10/20 01:22:45;;;;;;;15.85;5.25;;;;;;;;;;5091280;28;20034;-69
2022/10/20 01:25:26;;;;;;;19.83;5.30;;;;;;;;;;5091280;28;20021;-69
2022/10/20 01:27:54;;;;;;;19.23;5.38;;;;;;;;;;5091281;28;20020;-69
2022/10/20 01:30:22;;;;;;;16.13;5.03;;;;;;;;;;5091633;28;20031;-69
2022/10/20 01:32:51;;;;;;;21.50;5.15;;;;;;;;;;5090786;28;20370;-69
2022/10/20 01:35:27;;;;;;;18.58;5.40;;;;;;;;;;5091062;28;20032;-70
2022/10/20 01:38:06;;;;;;;18.75;6.25;;;;;;;;;;5091204;28;20025;-69
2022/10/20 01:40:42;;;;;;;16.65;5.53;;;;;;;;;;5091470;28;20411;-70
2022/10/20 01:43:11;;;;;;;21.20;5.68;;;;;;;;;;5091114;28;20396;-69
2022/10/20 01:45:39;;;;;;;17.58;6.70;;;;;;;;;;5090924;28;20039;-69
2022/10/20 01:48:06;;;;;;;14.18;6.43;;;;;;;;;;5090700;28;20042;-69
2022/10/20 01:50:36;;;;;;;17.38;6.57;;;;;;;;;;5090934;28;20040;-70
2022/10/20 01:53:03;;;;;;;20.47;6.90;;;;;;;;;;5091289;28;20496;-69
2022/10/20 01:55:30;;;;;;;18.45;7.20;;;;;;;;;;5091082;28;20032;-69
2022/10/20 01:57:56;;;;;;;23.15;7.45;;;;;;;;;;5090060;28;20032;-69
2022/10/20 02:00:22;;;;;;;26.60;7.72;;;;;;;;;;5091011;28;20020;-70
2022/10/20 02:03:04;;;;;;;21.85;7.57;;;;;;;;;;5089362;28;20032;-69
2022/10/20 02:05:30;;;;;;;16.27;8.00;;;;;;;;;;5091067;28;20386;-69
2022/10/20 02:08:07;;;;;;;24.48;8.48;;;;;;;;;;5090794;28;20030;-70
2022/10/20 02:10:37;;;;;;;20.52;8.20;;;;;;;;;;5090775;28;20036;-69
2022/10/20 02:13:05;;;;;;;26.40;8.57;;;;;;;;;;5090871;28;20059;-69
2022/10/20 02:15:32;;;;;;;30.30;8.75;;;;;;;;;;5090691;28;20411;-69
2022/10/20 02:18:00;;;;;;;21.27;8.38;;;;;;;;;;5090362;28;20430;-69
2022/10/20 02:20:28;;;;;;;20.40;8.18;;;;;;;;;;5090742;28;20016;-69
2022/10/20 02:22:55;;;;;;;22.05;8.45;;;;;;;;;;5091229;28;20038;-69
2022/10/20 02:25:22;;;;;;;18.98;7.68;;;;;;;;;;5090841;28;20030;-70
2022/10/20 02:27:49;;;;;;;16.48;7.43;;;;;;;;;;5090758;28;20028;-69
2022/10/20 02:30:16;;;;;;;16.25;8.25;;;;;;;;;;5090867;28;20032;-69
2022/10/20 02:32:43;;;;;;;20.65;9.07;;;;;;;;;;5090414;28;20028;-69
2022/10/20 02:35:13;;;;;;;20.15;9.48;;;;;;;;;;5090625;28;20108;-69
2022/10/20 02:37:39;;;;;;;20.13;8.85;;;;;;;;;;5091139;28;20392;-69
2022/10/20 02:40:06;;;;;;;23.25;8.93;;;;;;;;;;5094441;28;20024;-69
2022/10/20 02:42:32;;;;;;;25.42;9.10;;;;;;;;;;5094170;28;20031;-70
2022/10/20 02:44:59;;;;;;;22.02;9.23;;;;;;;;;;5094232;28;20044;-69
2022/10/20 02:47:25;;;;;;;23.10;8.18;;;;;;;;;;5094185;28;20039;-69
2022/10/20 02:49:51;;;;;;;19.42;7.90;;;;;;;;;;5094099;28;20023;-69
2022/10/20 02:52:17;;;;;;;24.05;8.05;;;;;;;;;;5093967;28;20404;-69
2022/10/20 02:54:44;;;;;;;17.42;7.00;;;;;;;;;;5093843;28;20022;-69
2022/10/20 02:57:10;;;;;;;18.98;7.85;;;;;;;;;;5094295;28;20042;-70
2022/10/20 02:59:37;;;;;;;16.60;7.20;;;;;;;;;;5093787;28;20028;-69
2022/10/20 03:02:03;;;;;;;24.60;7.60;;;;;;;;;;5093562;28;20035;-70
2022/10/20 03:04:29;;;;;;;25.17;8.50;;;;;;;;;;5093977;28;20032;-69
2022/10/20 03:06:56;;;;;;;26.63;9.27;;;;;;;;;;5094183;28;20024;-69
2022/10/20 03:09:22;;;;;;;24.45;9.02;;;;;;;;;;5093803;28;20032;-69
2022/10/20 03:11:48;;;;;;;21.65;8.82;;;;;;;;;;5092519;28;20030;-70
2022/10/20 03:14:14;;;;;;;29.17;10.15;;;;;;;;;;5093256;28;20046;-69
2022/10/20 03:16:41;;;;;;;23.15;9.75;;;;;;;;;;5093535;28;20043;-69
2022/10/20 03:19:07;;;;;;;22.58;9.98;;;;;;;;;;5093575;28;20027;-69
2022/10/20 03:21:33;;;;;;;17.70;9.30;;;;;;;;;;5092393;28;20040;-69
2022/10/20 03:24:00;;;;;;;20.63;9.02;;;;;;;;;;5093410;28;20020;-69
2022/10/20 03:26:26;;;;;;;17.00;8.55;;;;;;;;;;5093476;28;20488;-69
2022/10/20 03:28:53;;;;;;;16.30;8.43;;;;;;;;;;5093141;28;20020;-69
2022/10/20 03:31:19;;;;;;;19.00;8.00;;;;;;;;;;5093240;28;20032;-70
2022/10/20 03:33:45;;;;;;;15.52;7.75;;;;;;;;;;5093678;28;20020;-69
2022/10/20 03:36:11;;;;;;;20.92;7.65;;;;;;;;;;5093035;28;20518;-70
2022/10/20 03:38:41;;;;;;;15.85;7.18;;;;;;;;;;5093119;28;20017;-69
2022/10/20 03:41:07;;;;;;;17.20;7.28;;;;;;;;;;5093511;28;20024;-69
2022/10/20 03:43:33;;;;;;;15.48;7.75;;;;;;;;;;5092586;28;20026;-69
2022/10/20 03:46:01;;;;;;;14.23;7.30;;;;;;;;;;5092940;28;20453;-69
2022/10/20 03:48:28;;;;;;;18.00;8.15;;;;;;;;;;5092746;28;20399;-69
2022/10/20 03:50:54;;;;;;;18.77;7.75;;;;;;;;;;5092903;28;20016;-69
2022/10/20 03:53:20;;;;;;;21.67;7.88;;;;;;;;;;5092738;28;20077;-69
2022/10/20 03:55:46;;;;;;;15.95;8.38;;;;;;;;;;5092751;28;20077;-69
2022/10/20 03:58:13;;;;;;;20.75;9.77;;;;;;;;;;5092209;28;20016;-69
2022/10/20 04:00:39;;;;;;;22.73;8.82;;;;;;;;;;5092444;28;20507;-69
2022/10/20 04:03:05;;;;;;;20.40;9.02;;;;;;;;;;5092673;28;20093;-69
2022/10/20 04:05:32;;;;;;;21.70;8.93;;;;;;;;;;5092762;28;20545;-69
2022/10/20 04:07:58;;;;;;;19.15;8.52;;;;;;;;;;5092964;28;20053;-69
2022/10/20 04:10:24;;;;;;;20.90;8.85;;;;;;;;;;5092537;28;20035;-69
2022/10/20 04:12:51;;;;;;;22.75;9.80;;;;;;;;;;5091983;28;20044;-69
2022/10/20 04:15:17;;;;;;;22.05;8.95;;;;;;;;;;5092366;28;20036;-69
2022/10/20 04:17:44;;;;;;;19.65;9.23;;;;;;;;;;5092380;28;20381;-69
2022/10/20 04:20:10;;;;;;;29.92;9.32;;;;;;;;;;5092816;28;20024;-69
2022/10/20 04:22:37;;;;;;;24.55;10.25;;;;;;;;;;5092577;28;20024;-69
2022/10/20 04:25:04;;;;;;;17.23;8.93;;;;;;;;;;5092161;28;20036;-69
2022/10/20 04:27:31;;;;;;;18.17;9.05;;;;;;;;;;5091701;28;20047;-69
2022/10/20 04:29:57;;;;;;;21.90;9.02;;;;;;;;;;5092077;28;20377;-69
2022/10/20 04:32:23;;;;;;;18.00;9.25;;;;;;;;;;5092217;28;20020;-69
2022/10/20 04:34:50;;;;;;;23.30;9.30;;;;;;;;;;5091751;28;20025;-69
2022/10/20 04:37:16;;;;;;;22.50;10.48;;;;;;;;;;5092251;28;20026;-69
2022/10/20 04:39:43;;;;;;;19.55;10.13;;;;;;;;;;5091703;28;20024;-69
2022/10/20 04:42:09;;;;;;;21.02;10.73;;;;;;;;;;5091598;28;20038;-69
2022/10/20 04:44:35;;;;;;;27.63;11.00;;;;;;;;;;5091725;28;20024;-69
2022/10/20 04:47:01;;;;;;;19.85;9.05;;;;;;;;;;5092019;28;20038;-69
2022/10/20 04:49:28;;;;;;;21.20;8.80;;;;;;;;;;5091654;28;20023;-70
2022/10/20 04:51:54;;;;;;;23.15;9.52;;;;;;;;;;5091688;28;20023;-69
2022/10/20 04:54:20;;;;;;;23.88;9.57;;;;;;;;;;5091640;28;20412;-69
2022/10/20 04:56:47;;;;;;;25.42;9.35;;;;;;;;;;5089935;28;20044;-69
2022/10/20 04:59:13;;;;;;;16.55;8.70;;;;;;;;;;5091523;28;20473;-69
2022/10/20 05:01:39;;;;;;;18.38;8.32;;;;;;;;;;5089643;28;20036;-68
2022/10/20 05:04:06;;;;;;;23.77;9.68;;;;;;;;;;5091532;28;20020;-69
2022/10/20 05:06:32;;;;;;;23.55;10.32;;;;;;;;;;5091430;28;20032;-69
2022/10/20 05:09:00;;;;;;;19.73;8.98;;;;;;;;;;5091606;28;20013;-69
2022/10/20 05:11:27;;;;;;;13.70;6.60;;;;;;;;;;5090828;28;20077;-69
2022/10/20 05:13:54;;;;;;;21.13;6.80;;;;;;;;;;5091388;28;20056;-69
2022/10/20 05:16:21;;;;;;;16.95;7.00;;;;;;;;;;5091287;28;20489;-69
2022/10/20 05:18:47;;;;;;;16.35;7.53;;;;;;;;;;5091146;28;20024;-69
2022/10/20 05:21:15;;;;;;;16.23;6.60;;;;;;;;;;5094946;28;20018;-69
2022/10/20 05:23:42;;;;;;;15.88;6.30;;;;;;;;;;5111808;28;20035;-71
2022/10/20 05:26:11;;;;;;;17.63;5.32;;;;;;;;;;5111295;28;20049;-69
2022/10/20 05:28:38;;;;;;;12.35;5.47;;;;;;;;;;5111883;28;20023;-70
2022/10/20 05:31:05;;;;;;;12.00;5.28;;;;;;;;;;5111448;28;20062;-70
2022/10/20 05:33:32;;;;;;;13.07;5.43;;;;;;;;;;5111501;28;20018;-70
2022/10/20 05:35:59;;;;;;;11.93;4.75;;;;;;;;;;5111351;28;20032;-70
2022/10/20 05:38:25;;;;;;;14.07;4.90;;;;;;;;;;5111746;28;20022;-70
2022/10/20 05:40:51;;;;;;;12.52;4.72;;;;;;;;;;5111080;28;20042;-69
2022/10/20 05:43:18;;;;;;;9.80;5.10;;;;;;;;;;5111310;28;20011;-70
2022/10/20 05:45:44;;;;;;;10.52;4.20;;;;;;;;;;5091393;28;20039;-69
2022/10/20 05:48:10;;;;;;;15.25;3.90;;;;;;;;;;5090751;28;20047;-69
2022/10/20 05:50:37;;;;;;;8.05;3.92;;;;;;;;;;5089766;28;20032;-70
2022/10/20 05:53:04;;;;;;;12.25;3.65;;;;;;;;;;5089850;28;20024;-69
2022/10/20 05:55:30;;;;;;;15.38;3.90;;;;;;;;;;5090523;28;20028;-70
2022/10/20 05:57:56;;;;;;;10.68;3.92;;;;;;;;;;5090816;28;20511;-69
2022/10/20 06:00:29;;;;;;;14.48;3.78;;;;;;;;;;5090820;28;20469;-69
2022/10/20 06:02:56;;;;;;;19.33;4.47;;;;;;;;;;5070938;28;20029;-70
2022/10/20 06:05:23;;;;;;;10.05;4.60;;;;;;;;;;5070579;28;20029;-69
2022/10/20 06:07:49;;;;;;;16.80;4.85;;;;;;;;;;5069594;28;20033;-70
2022/10/20 06:10:15;;;;;;;16.20;5.43;;;;;;;;;;5069204;28;20460;-70
2022/10/20 06:12:42;;;;;;;15.88;4.80;;;;;;;;;;5071444;28;20044;-70
2022/10/20 06:15:08;;;;;;;13.82;5.03;;;;;;;;;;5074369;28;20035;-69
2022/10/20 06:17:35;;;;;;;19.70;5.07;;;;;;;;;;5076259;28;20039;-70
2022/10/20 06:20:01;;;;;;;21.67;4.95;;;;;;;;;;5091513;28;20366;-69
2022/10/20 06:22:27;;;;;;;16.25;5.05;;;;;;;;;;5083365;28;20054;-69
2022/10/20 06:24:54;;;;;;;16.08;4.63;;;;;;;;;;5093788;28;20021;-70
2022/10/20 06:27:20;;;;;;;21.45;5.05;;;;;;;;;;5090175;28;20548;-70
2022/10/20 06:29:46;;;;;;;12.20;5.07;;;;;;;;;;5087134;28;20080;-69
2022/10/20 06:32:13;;;;;;;17.02;4.50;;;;;;;;;;5091214;28;20500;-69
2022/10/20 06:34:39;;;;;;;16.95;5.13;;;;;;;;;;5092959;28;20016;-68
2022/10/20 06:37:05;;;;;;;11.35;4.65;;;;;;;;;;5093939;28;20058;-69
2022/10/20 06:39:31;;;;;;;19.15;4.80;;;;;;;;;;5093533;28;20012;-70
2022/10/20 06:41:58;;;;;;;21.30;5.30;;;;;;;;;;5080107;28;20087;-69
2022/10/20 06:44:24;;;;;;;18.08;5.18;;;;;;;;;;5091157;28;20511;-69
2022/10/20 06:46:51;;;;;;;17.27;4.53;;;;;;;;;;5089873;28;20022;-69
2022/10/20 06:49:17;;;;;;;26.50;5.28;;;;;;;;;;5092068;28;20489;-70
2022/10/20 06:51:43;;;;;;;19.45;4.38;;;;;;;;;;5073684;28;20027;-70
2022/10/20 06:54:10;;;;;;;16.48;4.72;;;;;;;;;;5073198;28;20398;-70
2022/10/20 06:56:36;;;;;;;18.33;4.35;;;;;;;;;;5073230;28;20032;-70
2022/10/20 06:59:03;;;;;;;18.27;4.93;;;;;;;;;;5085773;28;20024;-69
2022/10/20 07:01:31;;;;;;;16.33;4.53;;;;;;;;;;5093689;28;20042;-69
2022/10/20 07:03:58;;;;;;;12.50;3.78;;;;;;;;;;5093358;28;20016;-70
2022/10/20 07:06:27;;;;;;;17.05;4.68;;;;;;;;;;5092797;28;20024;-70
2022/10/20 07:08:55;;;;;;;21.10;4.65;;;;;;;;;;5093286;28;20026;-70
2022/10/20 07:11:23;;;;;;;12.00;3.75;;;;;;;;;;5092995;28;20046;-69
2022/10/20 07:13:49;;;;;;;19.35;4.78;;;;;;;;;;5091292;28;20040;-69
2022/10/20 07:16:17;;;;;;;14.43;3.97;;;;;;;;;;5093781;28;20491;-70
2022/10/20 07:18:44;;;;;;;20.10;4.88;;;;;;;;;;5094264;28;20013;-70
2022/10/20 07:21:14;;;;;;;16.50;5.15;;;;;;;;;;5093570;28;20024;-70
2022/10/20 07:23:41;;;;;;;23.52;5.03;;;;;;;;;;5093494;28;20030;-69
2022/10/20 07:26:12;;;;;;;22.27;5.03;;;;;;;;;;5093710;28;20507;-69
2022/10/20 07:28:40;;;;;;;20.77;4.43;;;;;;;;;;5082509;28;20034;-69
2022/10/20 07:31:08;;;;;;;24.25;5.20;;;;;;;;;;5074251;28;20031;-70
2022/10/20 07:33:34;;;;;;;22.80;5.10;;;;;;;;;;5092634;28;20028;-69
2022/10/20 07:36:01;;;;;;;20.52;5.00;;;;;;;;;;5094926;28;20038;-69
2022/10/20 07:38:27;;;;;;;19.90;4.95;;;;;;;;;;5092061;28;20030;-69
2022/10/20 07:41:01;;;;;;;17.95;4.95;;;;;;;;;;5092534;28;20032;-70
2022/10/20 07:43:27;;;;;;;18.92;4.60;;;;;;;;;;5087311;28;20032;-70
2022/10/20 07:45:53;;;;;;;21.08;4.40;;;;;;;;;;5090211;28;20504;-69
2022/10/20 07:48:20;;;;;;;26.55;4.85;;;;;;;;;;5092675;28;20100;-70
2022/10/20 07:50:46;;;;;;;24.73;5.15;;;;;;;;;;5084936;28;20034;-69
2022/10/20 07:53:12;;;;;;;18.27;4.82;;;;;;;;;;5086006;28;20040;-71
2022/10/20 07:55:38;;;;;;;16.48;4.60;;;;;;;;;;5091891;28;20217;-69
2022/10/20 07:58:05;;;;;;;18.02;4.80;;;;;;;;;;5091810;28;20113;-70
2022/10/20 08:00:31;;;;;;;20.20;5.35;;;;;;;;;;5089391;28;20469;-70
2022/10/20 08:02:58;;;;;;;18.10;4.78;;;;;;;;;;5088975;28;20036;-70
2022/10/20 08:05:24;;;;;;;25.40;5.35;;;;;;;;;;5092649;28;20020;-70
2022/10/20 08:07:50;;;;;;;17.20;4.45;;;;;;;;;;5092866;28;20031;-70
2022/10/20 08:10:17;;;;;;;14.80;4.65;;;;;;;;;;5093210;28;20462;-70
2022/10/20 08:12:43;;;;;;;23.25;4.82;;;;;;;;;;5090087;28;20044;-70
2022/10/20 08:15:09;;;;;;;21.63;4.90;;;;;;;;;;5093077;28;20028;-70
2022/10/20 08:17:36;;;;;;;31.30;4.97;;;;;;;;;;5092676;28;20076;-70
2022/10/20 08:20:03;;;;;;;21.45;5.53;;;;;;;;;;5091035;28;20409;-69
2022/10/20 08:22:29;;;;;;;18.30;4.38;;;;;;;;;;5092437;28;20020;-70
2022/10/20 08:24:55;;;;;;;13.13;4.85;;;;;;;;;;5092517;28;20028;-70
2022/10/20 08:27:22;;;;;;;22.52;4.43;;;;;;;;;;5108513;28;20049;-69
2022/10/20 08:29:48;;;;;;;17.38;4.47;;;;;;;;;;5112343;28;20491;-69
2022/10/20 08:32:14;;;;;;;13.88;4.30;;;;;;;;;;5112542;28;20024;-70
2022/10/20 08:34:41;;;;;;;19.70;4.57;;;;;;;;;;5112154;28;20020;-70
2022/10/20 08:37:08;;;;;;;22.80;4.45;;;;;;;;;;5112097;28;20042;-70
2022/10/20 08:39:34;;;;;;;17.60;4.18;;;;;;;;;;5112603;28;20024;-70
2022/10/20 08:42:02;;;;;;;15.10;3.42;;;;;;;;;;5108880;28;20020;-69
2022/10/20 08:44:33;;;;;;;20.23;4.68;;;;;;;;;;5091298;28;20028;-70
2022/10/20 08:47:01;;;;;;;11.40;3.63;;;;;;;;;;5092002;28;20477;-70
2022/10/20 08:49:29;;;;;;;15.07;4.18;;;;;;;;;;5091863;28;20027;-70
2022/10/20 08:51:55;;;;;;;16.63;4.50;;;;;;;;;;5092033;28;20507;-70
2022/10/20 08:54:22;;;;;;;16.42;4.38;;;;;;;;;;5091748;28;20030;-70
2022/10/20 08:56:48;;;;;;;19.00;4.30;;;;;;;;;;5091949;28;20040;-69
2022/10/20 08:59:26;;;;;;;26.08;4.97;;;;;;;;;;5092105;28;20016;-70
2022/10/20 09:01:53;;;;;;;16.88;4.88;;;;;;;;;;5100362;28;20032;-70
2022/10/20 09:04:21;;;;;;;19.52;4.60;;;;;;;;;;5090961;28;20016;-69
2022/10/20 09:06:51;;;;;;;13.02;4.47;;;;;;;;;;5091922;28;20027;-70
2022/10/20 09:09:18;;;;;;;16.83;3.60;;;;;;;;;;5092103;28;20024;-69
2022/10/20 09:11:45;;;;;;;16.80;3.72;;;;;;;;;;5090580;28;20012;-69
2022/10/20 09:14:11;;;;;;;21.65;3.90;;;;;;;;;;5091138;28;20052;-69
2022/10/20 09:16:39;;;;;;;17.92;4.10;;;;;;;;;;5092445;28;20489;-70
2022/10/20 09:19:07;;;;;;;16.95;4.35;;;;;;;;;;5091104;28;20030;-70
2022/10/20 09:21:35;;;;;;;12.98;3.90;;;;;;;;;;5091972;28;20036;-70
2022/10/20 09:24:03;;;;;;;15.93;3.90;;;;;;;;;;5091939;28;20020;-77
2022/10/20 09:26:35;;;;;;;14.65;3.78;;;;;;;;;;5092133;28;20024;-78
2022/10/20 09:29:08;;;;;;;21.85;4.72;;;;;;;;;;5091962;28;20020;-78
2022/10/20 09:31:35;;;;;;;19.25;4.10;;;;;;;;;;5091634;28;20026;-80
2022/10/20 09:34:04;;;;;;;14.77;3.85;;;;;;;;;;5092142;28;20020;-79
2022/10/20 09:36:33;;;;;;;14.68;3.95;;;;;;;;;;5091087;28;20036;-78
2022/10/20 09:39:00;;;;;;;14.10;4.68;;;;;;;;;;5091522;28;20020;-78
2022/10/20 09:41:29;;;;;;;16.00;4.20;;;;;;;;;;5091632;28;20024;-79
2022/10/20 09:43:55;;;;;;;24.83;4.57;;;;;;;;;;5090714;28;20120;-79
2022/10/20 09:46:26;;;;;;;16.92;4.60;;;;;;;;;;5088352;28;20028;-78
2022/10/20 09:48:53;;;;;;;15.18;4.18;;;;;;;;;;5095435;28;20499;-80
2022/10/20 09:51:37;;;;;;;15.48;4.13;;;;;;;;;;5102874;28;20030;-79
2022/10/20 09:54:03;;;;;;;13.35;3.35;;;;;;;;;;5074412;28;20032;-79
2022/10/20 09:56:32;;;;;;;13.98;3.83;;;;;;;;;;5075332;28;20066;-79
2022/10/20 09:58:59;;;;;;;13.70;3.67;;;;;;;;;;5075180;28;20024;-78
2022/10/20 10:01:25;;;;;;;15.52;3.75;;;;;;;;;;5092120;28;20028;-78
2022/10/20 10:03:55;;;;;;;17.45;3.80;;;;;;;;;;5095003;28;20023;-79
2022/10/20 10:06:27;;;;;;;15.77;3.83;;;;;;;;;;5075279;28;20025;-79
2022/10/20 10:08:53;;;;;;;12.63;3.38;;;;;;;;;;5074925;28;20378;-78
2022/10/20 10:11:21;;;;;;;10.70;3.15;;;;;;;;;;5075398;28;20024;-79
2022/10/20 10:13:49;;;;;;;10.73;3.45;;;;;;;;;;5074977;28;20047;-79
2022/10/20 10:16:16;;;;;;;11.73;3.30;;;;;;;;;;5074538;28;20045;-78
2022/10/20 10:19:03;;;;;;;11.25;3.10;;;;;;;;;;5074856;28;20016;-79
2022/10/20 10:21:30;;;;;;;11.30;3.30;;;;;;;;;;5074843;28;20396;-79
2022/10/20 10:23:59;;;;;;;7.93;3.17;;;;;;;;;;5087993;28;20028;-79
2022/10/20 10:26:38;;;;;;;11.43;2.83;;;;;;;;;;5094413;28;20027;-79
2022/10/20 10:29:05;;;;;;;13.80;3.13;;;;;;;;;;5095344;28;20027;-79
2022/10/20 10:31:32;;;;;;;9.60;2.97;;;;;;;;;;5094566;28;20077;-79
2022/10/20 10:34:14;;;;;;;14.20;3.13;;;;;;;;;;5094545;28;20030;-79
2022/10/20 10:36:40;;;;;;;12.85;2.85;;;;;;;;;;5094660;28;20043;-79
2022/10/20 10:39:11;;;;;;;9.95;3.10;;;;;;;;;;5094879;28;20031;-79
2022/10/20 10:41:37;;;;;;;;;;;;;;;;;;5095561;28;20036;-78
2022/10/20 10:44:06;;;;;;;15.80;3.30;;;;;;;;;;5094565;28;20012;-78
2022/10/20 10:46:35;;;;;;;9.88;3.03;;;;;;;;;;5094982;28;20409;-77
2022/10/20 10:49:08;;;;;;;10.93;2.90;;;;;;;;;;5094729;28;20540;-79
2022/10/20 10:51:52;;;;;;;10.98;3.00;;;;;;;;;;5094586;28;20028;-79
2022/10/20 10:54:37;;;;;;;12.55;3.00;;;;;;;;;;5094884;28;20020;-79
2022/10/20 10:57:15;;;;;;;11.70;2.80;;;;;;;;;;5094365;28;20408;-79
2022/10/20 10:59:43;;;;;;;13.05;2.88;;;;;;;;;;5093288;28;20484;-78
2022/10/20 11:02:18;;;;;;;7.90;2.25;;;;;;;;;;5094241;28;20525;-78
2022/10/20 11:04:47;;;;;;;8.88;2.47;;;;;;;;;;5094462;28;20384;-78
2022/10/20 11:07:20;;;;;;;12.05;2.70;;;;;;;;;;5094809;28;20024;-77
2022/10/20 11:10:09;;;;;;;9.27;2.85;;;;;;;;;;5094222;28;20023;-78
2022/10/20 11:12:42;;;;;;;16.13;3.17;;;;;;;;;;5094440;28;20030;-78
2022/10/20 11:15:17;;;;;;;14.15;3.50;;;;;;;;;;5094225;28;20036;-78
2022/10/20 11:17:52;;;;;;;17.42;3.60;;;;;;;;;;5094164;28;20038;-78
2022/10/20 11:20:30;;;;;;;15.07;3.58;;;;;;;;;;5094140;28;20054;-78
2022/10/20 11:23:19;;;;;;;13.27;3.88;;;;;;;;;;5094139;28;20012;-78
2022/10/20 11:25:51;;;;;;;14.77;3.80;;;;;;;;;;5092624;28;20032;-78
2022/10/20 11:28:43;;;;;;;10.10;3.40;;;;;;;;;;5093519;28;20023;-78
2022/10/20 11:31:18;;;;;;;8.50;3.30;;;;;;;;;;5094231;28;20014;-79
2022/10/20 11:33:46;;;;;;;18.33;4.15;;;;;;;;;;5094068;28;20028;-78
2022/10/20 11:36:18;;;;;;;11.93;3.92;;;;;;;;;;5084544;28;20044;-78
2022/10/20 11:38:54;;;;;;;8.98;3.38;;;;;;;;;;5093423;28;20028;-78
2022/10/20 11:41:24;;;;;;;14.07;2.97;;;;;;;;;;5090938;28;20032;-78
2022/10/20 11:43:54;;;;;;;11.55;3.45;;;;;;;;;;5088366;28;20397;-69
2022/10/20 11:46:41;;;;;;;11.60;3.33;;;;;;;;;;5088330;28;20028;-69
2022/10/20 11:49:07;;;;;;;9.27;2.70;;;;;;;;;;5082812;28;20400;-70
2022/10/20 11:51:50;;;;;;;11.38;3.03;;;;;;;;;;5111083;28;20482;-68
2022/10/20 11:54:40;;;;;;;11.65;2.92;;;;;;;;;;5094044;27;20039;-69
2022/10/20 11:57:09;;;;;;;8.95;3.35;;;;;;;;;;5092875;28;20028;-69
2022/10/20 11:59:44;;;;;;;9.60;3.00;;;;;;;;;;5072670;28;20489;-69
2022/10/20 12:02:17;;;;;;;15.02;3.38;;;;;;;;;;5083925;28;20031;-69
2022/10/20 12:04:44;;;;;;;10.43;3.00;;;;;;;;;;5087062;28;20023;-69
2022/10/20 12:07:29;;;;;;;14.00;3.22;;;;;;;;;;5098981;28;20027;-69
2022/10/20 12:10:34;;;;;;;9.50;2.65;;;;;;;;;;5087823;28;20384;-70
2022/10/20 12:13:00;;;;;;;9.02;2.55;;;;;;;;;;5063550;28;20044;-70
2022/10/20 12:15:27;;;;;;;9.88;3.15;;;;;;;;;;5069299;28;20029;-69
2022/10/20 12:17:54;;;;;;;12.27;3.10;;;;;;;;;;5069433;28;20559;-69
2022/10/20 12:20:20;;;;;;;5.97;2.55;;;;;;;;;;5069385;28;20044;-69
2022/10/20 12:23:01;;;;;;;14.93;2.80;;;;;;;;;;5069171;28;20034;-69
2022/10/20 12:25:27;;;;;;;13.18;2.80;;;;;;;;;;5085486;28;20036;-67
2022/10/20 12:28:12;;;;;;;13.77;3.10;;;;;;;;;;5068276;28;20032;-69
2022/10/20 12:30:38;;;;;;;9.45;3.10;;;;;;;;;;5064213;28;20036;-68
2022/10/20 12:33:16;;;;;;;7.00;2.83;;;;;;;;;;5044710;28;20030;-69
2022/10/20 12:36:01;;;;;;;15.15;3.22;;;;;;;;;;5065817;28;20028;-69
2022/10/20 12:38:28;;;;;;;14.43;3.33;;;;;;;;;;5062413;28;20045;-69
2022/10/20 12:40:56;;;;;;;15.05;3.65;;;;;;;;;;5033962;28;20028;-68
2022/10/20 12:43:25;;;;;;;11.73;3.20;;;;;;;;;;5081477;28;20032;-68
2022/10/20 12:45:51;;;;;;;13.80;3.28;;;;;;;;;;5092220;28;20038;-68
2022/10/20 12:48:21;;;;;;;17.65;3.75;;;;;;;;;;5089545;28;20016;-69
2022/10/20 12:50:49;;;;;;;9.88;3.10;;;;;;;;;;5092166;28;20366;-68
2022/10/20 12:53:25;;;;;;;9.85;3.63;;;;;;;;;;5092498;28;20016;-68
2022/10/20 12:56:04;;;;;;;11.77;3.20;;;;;;;;;;5091878;28;20024;-70
2022/10/20 12:58:32;;;;;;;11.45;2.92;;;;;;;;;;5093025;28;20024;-69
2022/10/20 13:00:58;;;;;;;13.13;3.75;;;;;;;;;;5090686;28;20024;-69
2022/10/20 13:03:31;;;;;;;10.95;3.60;;;;;;;;;;5091591;28;20483;-70
2022/10/20 13:05:57;;;;;;;13.00;3.47;;;;;;;;;;5088502;28;20016;-70
2022/10/20 13:08:26;;;;;;;7.93;2.58;;;;;;;;;;5091875;28;20507;-69
2022/10/20 13:10:53;;;;;;;14.95;3.22;;;;;;;;;;5091626;28;20503;-69
2022/10/20 13:13:19;;;;;;;12.13;3.38;;;;;;;;;;5090516;28;20078;-68
2022/10/20 13:15:46;;;;;;;12.60;3.38;;;;;;;;;;5092548;28;20508;-69
2022/10/20 13:18:12;;;;;;;14.85;3.35;;;;;;;;;;5091033;28;20024;-68
2022/10/20 13:20:39;;;;;;;12.77;3.60;;;;;;;;;;5092202;28;20027;-69
2022/10/20 13:23:05;;;;;;;14.77;3.60;;;;;;;;;;5091573;28;20026;-69
2022/10/20 13:25:49;;;;;;;17.02;3.72;;;;;;;;;;5091237;28;20028;-69
2022/10/20 13:28:18;;;;;;;11.68;3.53;;;;;;;;;;5091614;28;20016;-69
2022/10/20 13:30:48;;;;;;;14.48;3.70;;;;;;;;;;5091971;28;20032;-69
2022/10/20 13:33:34;;;;;;;16.25;3.00;;;;;;;;;;5106298;28;20484;-69
2022/10/20 13:36:10;;;;;;;15.00;3.35;;;;;;;;;;5111353;28;20574;-68
2022/10/20 13:38:39;;;;;;;9.77;3.10;;;;;;;;;;5111768;28;20544;-69
2022/10/20 13:41:08;;;;;;;11.45;3.70;;;;;;;;;;5111075;28;20050;-69
2022/10/20 13:44:10;;;;;;;16.05;3.22;;;;;;;;;;5109262;28;20028;-69
2022/10/20 13:46:59;;;;;;;13.52;2.95;;;;;;;;;;5088956;28;20032;-69
2022/10/20 13:49:36;;;;;;;10.80;3.13;;;;;;;;;;5097142;28;20044;-68
2022/10/20 13:52:04;;;;;;;10.60;3.78;;;;;;;;;;5109641;28;20036;-70
2022/10/20 13:54:33;;;;;;;11.07;3.67;;;;;;;;;;5109451;28;20032;-68
2022/10/20 13:56:59;;;;;;;10.27;3.13;;;;;;;;;;5109543;28;20500;-69
2022/10/20 13:59:27;;;;;;;10.50;3.42;;;;;;;;;;5109536;28;20052;-69
2022/10/20 14:01:58;;;;;;;12.73;3.60;;;;;;;;;;5092529;28;20085;-69
2022/10/20 14:04:25;;;;;;;15.32;3.30;;;;;;;;;;5086381;28;20019;-69
2022/10/20 14:06:52;;;;;;;16.25;3.28;;;;;;;;;;5089153;28;20038;-69
2022/10/20 14:09:20;;;;;;;11.40;3.08;;;;;;;;;;5089281;28;20022;-68
2022/10/20 14:11:48;;;;;;;12.30;3.05;;;;;;;;;;5087896;28;20032;-70
2022/10/20 14:14:16;;;;;;;9.95;3.15;;;;;;;;;;5088780;28;20052;-68
2022/10/20 14:16:49;;;;;;;6.72;2.50;;;;;;;;;;5087971;28;20085;-69
2022/10/20 14:19:15;;;;;;;11.52;3.45;;;;;;;;;;5088937;28;20431;-69
2022/10/20 14:21:44;;;;;;;14.52;3.17;;;;;;;;;;5090719;28;20511;-68
2022/10/20 14:24:16;;;;;;;18.33;3.90;;;;;;;;;;5091295;28;20511;-69
2022/10/20 14:26:43;;;;;;;13.63;2.92;;;;;;;;;;5090993;28;20472;-70
2022/10/20 14:29:14;;;;;;;8.82;3.13;;;;;;;;;;5090569;28;20039;-69
2022/10/20 14:31:40;;;;;;;15.52;3.28;;;;;;;;;;5091141;28;20435;-69
2022/10/20 14:34:16;;;;;;;8.40;2.60;;;;;;;;;;5092571;28;20039;-70
2022/10/20 14:36:42;;;;;;;9.82;3.10;;;;;;;;;;5094450;28;20035;-69
2022/10/20 14:39:19;;;;;;;14.10;2.75;;;;;;;;;;5094896;28;20473;-69
2022/10/20 14:41:45;;;;;;;8.82;3.20;;;;;;;;;;5113189;28;20026;-69